sensor_id;sensor_type;location;lat;lon;timestamp;P1;durP1;ratioP1;P2;durP2;ratioP2
67602;SDS011;54417;47.454;18.918;2023-09-08T00:04:02;6.75;;;4.40;;
67602;SDS011;54417;47.454;18.918;2023-09-08T00:09:28;6.82;;;4.78;;
67602;SDS011;54417;47.454;18.918;2023-09-08T00:14:52;7.80;;;4.97;;
67602;SDS011;54417;47.454;18.918;2023-09-08T00:20:16;8.52;;;4.55;;
67602;SDS011;54417;47.454;18.918;2023-09-08T00:25:42;7.50;;;4.97;;
67602;SDS011;54417;47.454;18.918;2023-09-08T00:31:05;6.75;;;4.30;;
67602;SDS011;54417;47.454;18.918;2023-09-08T00:36:29;8.60;;;4.65;;
67602;SDS011;54417;47.454;18.918;2023-09-08T00:41:54;8.07;;;5.25;;
67602;SDS011;54417;47.454;18.918;2023-09-08T00:47:18;8.00;;;4.30;;
67602;SDS011;54417;47.454;18.918;2023-09-08T00:52:42;7.65;;;4.65;;
67602;SDS011;54417;47.454;18.918;2023-09-08T00:58:07;6.63;;;5.00;;
67602;SDS011;54417;47.454;18.918;2023-09-08T01:03:31;7.10;;;5.05;;
67602;SDS011;54417;47.454;18.918;2023-09-08T01:08:55;8.02;;;4.93;;
67602;SDS011;54417;47.454;18.918;2023-09-08T01:14:21;6.50;;;4.78;;
67602;SDS011;54417;47.454;18.918;2023-09-08T01:19:44;7.68;;;4.82;;
67602;SDS011;54417;47.454;18.918;2023-09-08T01:25:19;8.13;;;4.55;;
67602;SDS011;54417;47.454;18.918;2023-09-08T01:30:45;8.15;;;4.72;;
67602;SDS011;54417;47.454;18.918;2023-09-08T01:36:09;8.25;;;5.15;;
67602;SDS011;54417;47.454;18.918;2023-09-08T01:41:35;7.15;;;5.05;;
67602;SDS011;54417;47.454;18.918;2023-09-08T01:46:58;9.68;;;5.20;;
67602;SDS011;54417;47.454;18.918;2023-09-08T01:52:22;6.97;;;4.82;;
67602;SDS011;54417;47.454;18.918;2023-09-08T01:57:48;7.88;;;5.63;;
67602;SDS011;54417;47.454;18.918;2023-09-08T02:03:12;10.45;;;5.13;;
67602;SDS011;54417;47.454;18.918;2023-09-08T02:08:36;10.38;;;5.28;;
67602;SDS011;54417;47.454;18.918;2023-09-08T02:14:02;6.43;;;4.95;;
67602;SDS011;54417;47.454;18.918;2023-09-08T02:19:26;6.50;;;4.75;;
67602;SDS011;54417;47.454;18.918;2023-09-08T02:24:50;8.18;;;5.20;;
67602;SDS011;54417;47.454;18.918;2023-09-08T02:30:16;6.00;;;4.50;;
67602;SDS011;54417;47.454;18.918;2023-09-08T02:35:40;7.93;;;4.63;;
67602;SDS011;54417;47.454;18.918;2023-09-08T02:41:04;9.52;;;6.10;;
67602;SDS011;54417;47.454;18.918;2023-09-08T02:46:30;7.32;;;4.55;;
67602;SDS011;54417;47.454;18.918;2023-09-08T02:51:54;7.13;;;4.47;;
67602;SDS011;54417;47.454;18.918;2023-09-08T02:57:18;6.28;;;5.05;;
67602;SDS011;54417;47.454;18.918;2023-09-08T03:02:44;7.28;;;4.90;;
67602;SDS011;54417;47.454;18.918;2023-09-08T03:08:08;10.77;;;5.60;;
67602;SDS011;54417;47.454;18.918;2023-09-08T03:13:31;7.25;;;4.88;;
67602;SDS011;54417;47.454;18.918;2023-09-08T03:18:57;8.35;;;5.47;;
67602;SDS011;54417;47.454;18.918;2023-09-08T03:24:21;9.45;;;5.80;;
67602;SDS011;54417;47.454;18.918;2023-09-08T03:29:45;6.70;;;5.10;;
67602;SDS011;54417;47.454;18.918;2023-09-08T03:35:10;8.90;;;5.63;;
67602;SDS011;54417;47.454;18.918;2023-09-08T03:40:34;7.70;;;4.97;;
67602;SDS011;54417;47.454;18.918;2023-09-08T03:45:58;5.80;;;5.20;;
67602;SDS011;54417;47.454;18.918;2023-09-08T03:51:23;6.97;;;5.43;;
67602;SDS011;54417;47.454;18.918;2023-09-08T03:56:47;11.30;;;5.43;;
67602;SDS011;54417;47.454;18.918;2023-09-08T04:02:11;8.10;;;5.85;;
67602;SDS011;54417;47.454;18.918;2023-09-08T04:07:36;8.50;;;5.55;;
67602;SDS011;54417;47.454;18.918;2023-09-08T04:13:00;11.70;;;5.80;;
67602;SDS011;54417;47.454;18.918;2023-09-08T04:18:24;8.93;;;5.75;;
67602;SDS011;54417;47.454;18.918;2023-09-08T04:23:51;9.60;;;5.32;;
67602;SDS011;54417;47.454;18.918;2023-09-08T04:29:14;7.05;;;5.63;;
67602;SDS011;54417;47.454;18.918;2023-09-08T04:34:39;9.48;;;5.30;;
67602;SDS011;54417;47.454;18.918;2023-09-08T04:40:05;6.43;;;5.32;;
67602;SDS011;54417;47.454;18.918;2023-09-08T04:45:31;11.00;;;6.50;;
67602;SDS011;54417;47.454;18.918;2023-09-08T04:50:55;9.55;;;6.07;;
67602;SDS011;54417;47.454;18.918;2023-09-08T04:56:21;10.48;;;6.90;;
67602;SDS011;54417;47.454;18.918;2023-09-08T05:01:45;10.65;;;6.13;;
67602;SDS011;54417;47.454;18.918;2023-09-08T05:07:09;11.63;;;6.07;;
67602;SDS011;54417;47.454;18.918;2023-09-08T05:12:37;10.98;;;5.97;;
67602;SDS011;54417;47.454;18.918;2023-09-08T05:18:01;8.23;;;6.00;;
67602;SDS011;54417;47.454;18.918;2023-09-08T05:23:26;7.35;;;5.95;;
67602;SDS011;54417;47.454;18.918;2023-09-08T05:28:51;9.23;;;5.65;;
67602;SDS011;54417;47.454;18.918;2023-09-08T05:34:15;10.77;;;6.20;;
67602;SDS011;54417;47.454;18.918;2023-09-08T05:39:39;11.55;;;5.95;;
67602;SDS011;54417;47.454;18.918;2023-09-08T05:45:05;10.55;;;6.25;;
67602;SDS011;54417;47.454;18.918;2023-09-08T05:50:30;13.73;;;6.47;;
67602;SDS011;54417;47.454;18.918;2023-09-08T05:55:54;8.10;;;5.78;;
67602;SDS011;54417;47.454;18.918;2023-09-08T06:01:19;8.70;;;5.70;;
67602;SDS011;54417;47.454;18.918;2023-09-08T06:06:44;8.57;;;5.30;;
67602;SDS011;54417;47.454;18.918;2023-09-08T06:12:09;12.52;;;6.38;;
67602;SDS011;54417;47.454;18.918;2023-09-08T06:17:35;9.50;;;5.32;;
67602;SDS011;54417;47.454;18.918;2023-09-08T06:22:58;8.73;;;4.78;;
67602;SDS011;54417;47.454;18.918;2023-09-08T06:28:22;7.45;;;4.50;;
67602;SDS011;54417;47.454;18.918;2023-09-08T06:33:48;7.25;;;4.40;;
67602;SDS011;54417;47.454;18.918;2023-09-08T06:39:15;7.82;;;4.38;;
67602;SDS011;54417;47.454;18.918;2023-09-08T06:44:39;7.18;;;3.97;;
67602;SDS011;54417;47.454;18.918;2023-09-08T06:50:04;6.43;;;4.20;;
67602;SDS011;54417;47.454;18.918;2023-09-08T06:55:29;6.53;;;4.57;;
67602;SDS011;54417;47.454;18.918;2023-09-08T07:00:53;7.00;;;4.30;;
67602;SDS011;54417;47.454;18.918;2023-09-08T07:06:20;7.43;;;4.35;;
67602;SDS011;54417;47.454;18.918;2023-09-08T07:11:45;7.07;;;3.90;;
67602;SDS011;54417;47.454;18.918;2023-09-08T07:17:10;11.52;;;4.15;;
67602;SDS011;54417;47.454;18.918;2023-09-08T07:22:35;10.85;;;4.40;;
67602;SDS011;54417;47.454;18.918;2023-09-08T07:27:59;6.53;;;4.05;;
67602;SDS011;54417;47.454;18.918;2023-09-08T07:33:23;8.40;;;4.60;;
67602;SDS011;54417;47.454;18.918;2023-09-08T07:38:48;10.07;;;4.72;;
67602;SDS011;54417;47.454;18.918;2023-09-08T07:44:12;8.05;;;4.63;;
67602;SDS011;54417;47.454;18.918;2023-09-08T07:49:36;7.78;;;4.65;;
67602;SDS011;54417;47.454;18.918;2023-09-08T07:55:02;8.52;;;5.15;;
67602;SDS011;54417;47.454;18.918;2023-09-08T08:00:26;7.93;;;4.63;;
67602;SDS011;54417;47.454;18.918;2023-09-08T08:05:50;6.43;;;4.30;;
67602;SDS011;54417;47.454;18.918;2023-09-08T08:11:16;6.97;;;4.10;;
67602;SDS011;54417;47.454;18.918;2023-09-08T08:16:40;6.75;;;4.50;;
67602;SDS011;54417;47.454;18.918;2023-09-08T08:22:04;7.30;;;4.30;;
67602;SDS011;54417;47.454;18.918;2023-09-08T08:27:30;6.65;;;4.47;;
67602;SDS011;54417;47.454;18.918;2023-09-08T08:32:54;14.23;;;5.40;;
67602;SDS011;54417;47.454;18.918;2023-09-08T08:38:18;7.80;;;4.28;;
67602;SDS011;54417;47.454;18.918;2023-09-08T08:43:44;7.75;;;3.97;;
67602;SDS011;54417;47.454;18.918;2023-09-08T08:49:09;8.93;;;4.78;;
67602;SDS011;54417;47.454;18.918;2023-09-08T08:54:34;8.43;;;4.95;;
67602;SDS011;54417;47.454;18.918;2023-09-08T09:00:02;6.18;;;4.30;;
67602;SDS011;54417;47.454;18.918;2023-09-08T09:05:28;7.35;;;4.43;;
67602;SDS011;54417;47.454;18.918;2023-09-08T09:10:52;7.47;;;4.63;;
67602;SDS011;54417;47.454;18.918;2023-09-08T09:16:18;6.30;;;4.50;;
67602;SDS011;54417;47.454;18.918;2023-09-08T09:21:43;9.07;;;4.50;;
67602;SDS011;54417;47.454;18.918;2023-09-08T09:27:09;6.40;;;4.10;;
67602;SDS011;54417;47.454;18.918;2023-09-08T09:32:35;7.97;;;4.07;;
67602;SDS011;54417;47.454;18.918;2023-09-08T09:37:59;8.02;;;4.72;;
67602;SDS011;54417;47.454;18.918;2023-09-08T09:43:23;7.78;;;4.85;;
67602;SDS011;54417;47.454;18.918;2023-09-08T09:48:48;6.25;;;4.30;;
67602;SDS011;54417;47.454;18.918;2023-09-08T09:54:14;5.13;;;3.63;;
67602;SDS011;54417;47.454;18.918;2023-09-08T09:59:38;12.05;;;4.38;;
67602;SDS011;54417;47.454;18.918;2023-09-08T10:05:11;4.30;;;3.50;;
67602;SDS011;54417;47.454;18.918;2023-09-08T10:10:36;5.72;;;3.92;;
67602;SDS011;54417;47.454;18.918;2023-09-08T10:16:01;5.35;;;4.05;;
67602;SDS011;54417;47.454;18.918;2023-09-08T10:21:27;5.93;;;4.57;;
67602;SDS011;54417;47.454;18.918;2023-09-08T10:26:55;8.02;;;4.68;;
67602;SDS011;54417;47.454;18.918;2023-09-08T10:32:23;5.93;;;4.32;;
67602;SDS011;54417;47.454;18.918;2023-09-08T10:37:49;11.48;;;4.50;;
67602;SDS011;54417;47.454;18.918;2023-09-08T10:43:14;8.25;;;4.40;;
67602;SDS011;54417;47.454;18.918;2023-09-08T10:48:40;5.50;;;4.20;;
67602;SDS011;54417;47.454;18.918;2023-09-08T10:54:06;9.88;;;4.18;;
67602;SDS011;54417;47.454;18.918;2023-09-08T10:59:34;6.45;;;4.45;;
67602;SDS011;54417;47.454;18.918;2023-09-08T11:04:58;8.85;;;4.40;;
67602;SDS011;54417;47.454;18.918;2023-09-08T11:10:23;7.75;;;3.95;;
67602;SDS011;54417;47.454;18.918;2023-09-08T11:15:47;11.18;;;4.78;;
67602;SDS011;54417;47.454;18.918;2023-09-08T11:21:14;5.88;;;3.88;;
67602;SDS011;54417;47.454;18.918;2023-09-08T11:26:40;6.07;;;3.50;;
67602;SDS011;54417;47.454;18.918;2023-09-08T11:32:08;9.18;;;3.80;;
67602;SDS011;54417;47.454;18.918;2023-09-08T11:37:31;5.88;;;3.72;;
67602;SDS011;54417;47.454;18.918;2023-09-08T11:43:02;14.65;;;3.92;;
67602;SDS011;54417;47.454;18.918;2023-09-08T11:48:26;10.77;;;4.18;;
67602;SDS011;54417;47.454;18.918;2023-09-08T11:53:50;3.97;;;3.20;;
67602;SDS011;54417;47.454;18.918;2023-09-08T11:59:16;4.95;;;3.30;;
67602;SDS011;54417;47.454;18.918;2023-09-08T12:04:40;7.47;;;3.42;;
67602;SDS011;54417;47.454;18.918;2023-09-08T12:10:06;5.45;;;3.55;;
67602;SDS011;54417;47.454;18.918;2023-09-08T12:15:33;10.43;;;3.58;;
67602;SDS011;54417;47.454;18.918;2023-09-08T12:21:03;3.83;;;3.25;;
67602;SDS011;54417;47.454;18.918;2023-09-08T12:26:28;5.65;;;3.63;;
67602;SDS011;54417;47.454;18.918;2023-09-08T12:31:53;5.55;;;3.60;;
67602;SDS011;54417;47.454;18.918;2023-09-08T12:37:19;7.55;;;4.15;;
67602;SDS011;54417;47.454;18.918;2023-09-08T12:42:44;7.40;;;3.53;;
67602;SDS011;54417;47.454;18.918;2023-09-08T12:48:18;9.07;;;3.80;;
67602;SDS011;54417;47.454;18.918;2023-09-08T12:53:42;4.68;;;3.33;;
67602;SDS011;54417;47.454;18.918;2023-09-08T12:59:05;4.75;;;3.50;;
67602;SDS011;54417;47.454;18.918;2023-09-08T13:04:31;7.78;;;3.60;;
67602;SDS011;54417;47.454;18.918;2023-09-08T13:09:54;4.65;;;3.58;;
67602;SDS011;54417;47.454;18.918;2023-09-08T13:15:18;4.85;;;3.22;;
67602;SDS011;54417;47.454;18.918;2023-09-08T13:20:43;5.72;;;3.33;;
67602;SDS011;54417;47.454;18.918;2023-09-08T13:26:07;6.30;;;3.40;;
67602;SDS011;54417;47.454;18.918;2023-09-08T13:31:31;5.90;;;3.53;;
67602;SDS011;54417;47.454;18.918;2023-09-08T13:36:56;5.80;;;3.65;;
67602;SDS011;54417;47.454;18.918;2023-09-08T13:42:20;10.70;;;3.65;;
67602;SDS011;54417;47.454;18.918;2023-09-08T13:47:44;6.03;;;3.63;;
67602;SDS011;54417;47.454;18.918;2023-09-08T13:53:10;10.80;;;3.90;;
67602;SDS011;54417;47.454;18.918;2023-09-08T13:58:36;4.57;;;3.30;;
67602;SDS011;54417;47.454;18.918;2023-09-08T14:04:10;10.70;;;3.67;;
67602;SDS011;54417;47.454;18.918;2023-09-08T14:09:41;7.43;;;3.42;;
67602;SDS011;54417;47.454;18.918;2023-09-08T14:15:16;7.78;;;3.75;;
67602;SDS011;54417;47.454;18.918;2023-09-08T14:20:40;4.43;;;3.13;;
67602;SDS011;54417;47.454;18.918;2023-09-08T14:26:05;8.98;;;3.17;;
67602;SDS011;54417;47.454;18.918;2023-09-08T14:31:29;5.47;;;3.42;;
67602;SDS011;54417;47.454;18.918;2023-09-08T14:36:53;4.78;;;3.80;;
67602;SDS011;54417;47.454;18.918;2023-09-08T14:42:18;7.05;;;3.50;;
67602;SDS011;54417;47.454;18.918;2023-09-08T14:47:42;5.55;;;3.60;;
67602;SDS011;54417;47.454;18.918;2023-09-08T14:53:05;4.72;;;2.97;;
67602;SDS011;54417;47.454;18.918;2023-09-08T14:58:31;5.45;;;3.33;;
67602;SDS011;54417;47.454;18.918;2023-09-08T15:03:56;5.75;;;3.72;;
67602;SDS011;54417;47.454;18.918;2023-09-08T15:09:20;7.13;;;3.25;;
67602;SDS011;54417;47.454;18.918;2023-09-08T15:14:45;7.93;;;3.88;;
67602;SDS011;54417;47.454;18.918;2023-09-08T15:20:09;5.03;;;3.58;;
67602;SDS011;54417;47.454;18.918;2023-09-08T15:25:34;9.85;;;3.50;;
67602;SDS011;54417;47.454;18.918;2023-09-08T15:31:00;8.15;;;3.40;;
67602;SDS011;54417;47.454;18.918;2023-09-08T15:36:24;5.28;;;3.95;;
67602;SDS011;54417;47.454;18.918;2023-09-08T15:41:47;5.25;;;3.30;;
67602;SDS011;54417;47.454;18.918;2023-09-08T15:47:13;6.22;;;3.40;;
67602;SDS011;54417;47.454;18.918;2023-09-08T15:52:36;7.45;;;3.72;;
67602;SDS011;54417;47.454;18.918;2023-09-08T15:58:00;5.47;;;3.17;;
67602;SDS011;54417;47.454;18.918;2023-09-08T16:03:25;9.07;;;4.28;;
67602;SDS011;54417;47.454;18.918;2023-09-08T16:08:49;6.40;;;3.65;;
67602;SDS011;54417;47.454;18.918;2023-09-08T16:14:13;4.65;;;3.05;;
67602;SDS011;54417;47.454;18.918;2023-09-08T16:19:38;4.65;;;3.42;;
67602;SDS011;54417;47.454;18.918;2023-09-08T16:25:04;5.60;;;3.22;;
67602;SDS011;54417;47.454;18.918;2023-09-08T16:30:29;7.10;;;3.85;;
67602;SDS011;54417;47.454;18.918;2023-09-08T16:35:54;9.45;;;3.30;;
67602;SDS011;54417;47.454;18.918;2023-09-08T16:41:18;7.18;;;3.83;;
67602;SDS011;54417;47.454;18.918;2023-09-08T16:46:42;6.63;;;3.83;;
67602;SDS011;54417;47.454;18.918;2023-09-08T16:52:07;7.13;;;4.00;;
67602;SDS011;54417;47.454;18.918;2023-09-08T16:57:31;6.80;;;3.20;;
67602;SDS011;54417;47.454;18.918;2023-09-08T17:02:55;6.10;;;3.95;;
67602;SDS011;54417;47.454;18.918;2023-09-08T17:08:20;5.50;;;3.30;;
67602;SDS011;54417;47.454;18.918;2023-09-08T17:13:44;9.30;;;3.92;;
67602;SDS011;54417;47.454;18.918;2023-09-08T17:19:08;11.65;;;4.28;;
67602;SDS011;54417;47.454;18.918;2023-09-08T17:24:34;15.23;;;4.38;;
67602;SDS011;54417;47.454;18.918;2023-09-08T17:29:58;13.82;;;3.85;;
67602;SDS011;54417;47.454;18.918;2023-09-08T17:35:22;10.15;;;4.07;;
67602;SDS011;54417;47.454;18.918;2023-09-08T17:40:47;6.90;;;4.03;;
67602;SDS011;54417;47.454;18.918;2023-09-08T17:46:10;14.98;;;4.07;;
67602;SDS011;54417;47.454;18.918;2023-09-08T17:51:34;7.70;;;3.88;;
67602;SDS011;54417;47.454;18.918;2023-09-08T17:57:00;8.10;;;3.47;;
67602;SDS011;54417;47.454;18.918;2023-09-08T18:02:23;9.23;;;4.32;;
67602;SDS011;54417;47.454;18.918;2023-09-08T18:07:47;8.98;;;3.72;;
67602;SDS011;54417;47.454;18.918;2023-09-08T18:13:13;7.32;;;4.32;;
67602;SDS011;54417;47.454;18.918;2023-09-08T18:18:36;8.27;;;4.28;;
67602;SDS011;54417;47.454;18.918;2023-09-08T18:24:01;10.40;;;4.35;;
67602;SDS011;54417;47.454;18.918;2023-09-08T18:29:26;15.50;;;4.43;;
67602;SDS011;54417;47.454;18.918;2023-09-08T18:34:50;10.15;;;4.10;;
67602;SDS011;54417;47.454;18.918;2023-09-08T18:40:16;8.63;;;4.30;;
67602;SDS011;54417;47.454;18.918;2023-09-08T18:45:42;7.93;;;3.58;;
67602;SDS011;54417;47.454;18.918;2023-09-08T18:51:06;8.27;;;4.18;;
67602;SDS011;54417;47.454;18.918;2023-09-08T18:56:30;10.93;;;4.22;;
67602;SDS011;54417;47.454;18.918;2023-09-08T19:01:56;10.85;;;4.38;;
67602;SDS011;54417;47.454;18.918;2023-09-08T19:07:20;8.15;;;4.68;;
67602;SDS011;54417;47.454;18.918;2023-09-08T19:12:43;7.28;;;4.35;;
67602;SDS011;54417;47.454;18.918;2023-09-08T19:18:08;6.82;;;4.50;;
67602;SDS011;54417;47.454;18.918;2023-09-08T19:23:32;9.55;;;5.10;;
67602;SDS011;54417;47.454;18.918;2023-09-08T19:28:57;10.13;;;4.68;;
67602;SDS011;54417;47.454;18.918;2023-09-08T19:34:25;16.98;;;4.97;;
67602;SDS011;54417;47.454;18.918;2023-09-08T19:39:49;10.57;;;4.95;;
67602;SDS011;54417;47.454;18.918;2023-09-08T19:45:13;7.20;;;4.78;;
67602;SDS011;54417;47.454;18.918;2023-09-08T19:50:38;9.55;;;4.28;;
67602;SDS011;54417;47.454;18.918;2023-09-08T19:56:02;8.40;;;4.47;;
67602;SDS011;54417;47.454;18.918;2023-09-08T20:01:27;15.27;;;4.88;;
67602;SDS011;54417;47.454;18.918;2023-09-08T20:06:53;11.80;;;4.80;;
67602;SDS011;54417;47.454;18.918;2023-09-08T20:12:19;7.90;;;4.50;;
67602;SDS011;54417;47.454;18.918;2023-09-08T20:17:43;6.82;;;4.45;;
67602;SDS011;54417;47.454;18.918;2023-09-08T20:23:09;9.45;;;4.25;;
67602;SDS011;54417;47.454;18.918;2023-09-08T20:28:35;7.85;;;4.88;;
67602;SDS011;54417;47.454;18.918;2023-09-08T20:33:59;8.98;;;4.65;;
67602;SDS011;54417;47.454;18.918;2023-09-08T20:39:24;9.23;;;4.68;;
67602;SDS011;54417;47.454;18.918;2023-09-08T20:44:48;9.45;;;5.28;;
67602;SDS011;54417;47.454;18.918;2023-09-08T20:50:12;10.27;;;5.70;;
67602;SDS011;54417;47.454;18.918;2023-09-08T20:55:37;6.43;;;4.95;;
67602;SDS011;54417;47.454;18.918;2023-09-08T21:01:01;6.95;;;4.28;;
67602;SDS011;54417;47.454;18.918;2023-09-08T21:06:25;8.23;;;4.68;;
67602;SDS011;54417;47.454;18.918;2023-09-08T21:11:50;9.00;;;4.57;;
67602;SDS011;54417;47.454;18.918;2023-09-08T21:17:14;7.60;;;4.85;;
67602;SDS011;54417;47.454;18.918;2023-09-08T21:22:38;10.30;;;4.95;;
67602;SDS011;54417;47.454;18.918;2023-09-08T21:28:03;8.77;;;4.80;;
67602;SDS011;54417;47.454;18.918;2023-09-08T21:33:28;6.75;;;4.85;;
67602;SDS011;54417;47.454;18.918;2023-09-08T21:38:52;6.75;;;4.47;;
67602;SDS011;54417;47.454;18.918;2023-09-08T21:44:19;15.05;;;4.80;;
67602;SDS011;54417;47.454;18.918;2023-09-08T21:49:43;8.25;;;5.32;;
67602;SDS011;54417;47.454;18.918;2023-09-08T21:55:07;6.38;;;4.60;;
67602;SDS011;54417;47.454;18.918;2023-09-08T22:00:33;10.02;;;5.15;;
67602;SDS011;54417;47.454;18.918;2023-09-08T22:05:57;9.02;;;5.18;;
67602;SDS011;54417;47.454;18.918;2023-09-08T22:11:21;5.32;;;4.25;;
67602;SDS011;54417;47.454;18.918;2023-09-08T22:16:46;10.23;;;4.90;;
67602;SDS011;54417;47.454;18.918;2023-09-08T22:22:10;8.77;;;4.70;;
67602;SDS011;54417;47.454;18.918;2023-09-08T22:27:34;7.75;;;5.00;;
67602;SDS011;54417;47.454;18.918;2023-09-08T22:32:59;6.35;;;4.88;;
67602;SDS011;54417;47.454;18.918;2023-09-08T22:38:23;8.98;;;4.93;;
67602;SDS011;54417;47.454;18.918;2023-09-08T22:43:47;7.47;;;4.95;;
67602;SDS011;54417;47.454;18.918;2023-09-08T22:49:12;10.45;;;5.10;;
67602;SDS011;54417;47.454;18.918;2023-09-08T22:54:36;7.40;;;5.45;;
67602;SDS011;54417;47.454;18.918;2023-09-08T23:00:00;6.85;;;4.55;;
67602;SDS011;54417;47.454;18.918;2023-09-08T23:05:27;7.72;;;4.80;;
67602;SDS011;54417;47.454;18.918;2023-09-08T23:10:51;8.38;;;4.60;;
67602;SDS011;54417;47.454;18.918;2023-09-08T23:16:15;11.10;;;4.32;;
67602;SDS011;54417;47.454;18.918;2023-09-08T23:21:40;9.55;;;4.57;;
67602;SDS011;54417;47.454;18.918;2023-09-08T23:27:04;7.45;;;4.50;;
67602;SDS011;54417;47.454;18.918;2023-09-08T23:32:28;6.15;;;4.65;;
67602;SDS011;54417;47.454;18.918;2023-09-08T23:37:53;10.77;;;5.28;;
67602;SDS011;54417;47.454;18.918;2023-09-08T23:43:17;10.30;;;6.05;;
67602;SDS011;54417;47.454;18.918;2023-09-08T23:48:41;6.13;;;4.45;;
67602;SDS011;54417;47.454;18.918;2023-09-08T23:54:06;8.10;;;4.70;;
67602;SDS011;54417;47.454;18.918;2023-09-08T23:59:30;7.10;;;4.65;;
